createdAt,value
2018-02-06T00:04:07.523Z,7.07
2018-02-06T00:09:10.127Z,5.40
2018-02-06T00:14:12.675Z,5.63
2018-02-06T00:19:15.186Z,4.63
2018-02-06T00:24:18.717Z,5.83
2018-02-06T00:29:21.379Z,6.20
2018-02-06T00:34:25.471Z,5.10
2018-02-06T00:39:27.987Z,4.37
2018-02-06T00:44:33.784Z,6.23
2018-02-06T00:49:36.578Z,5.40
2018-02-06T00:54:39.272Z,4.63
2018-02-06T00:59:41.788Z,5.50
2018-02-06T01:04:44.306Z,4.40
2018-02-06T01:09:46.873Z,5.00
2018-02-06T01:14:49.407Z,8.53
2018-02-06T01:19:51.916Z,10.10
2018-02-06T01:24:55.354Z,7.63
2018-02-06T01:29:57.879Z,8.63
2018-02-06T01:35:00.363Z,7.40
2018-02-06T01:40:02.856Z,7.80
2018-02-06T01:45:05.388Z,11.13
2018-02-06T01:50:08.663Z,8.07
2018-02-06T01:55:11.154Z,6.30
2018-02-06T02:00:13.856Z,6.17
2018-02-06T02:05:16.350Z,6.47
2018-02-06T02:10:19.181Z,7.00
2018-02-06T02:15:22.086Z,6.10
2018-02-06T02:20:24.598Z,7.90
2018-02-06T02:25:27.079Z,8.60
2018-02-06T02:30:30.354Z,7.80
2018-02-06T02:35:32.864Z,5.87
2018-02-06T02:40:35.453Z,8.40
2018-02-06T04:41:40.466Z,4.00
2018-02-06T04:46:43.015Z,5.30
2018-02-06T04:51:45.520Z,5.90
2018-02-06T04:56:48.132Z,4.67
2018-02-06T05:01:51.195Z,6.10
2018-02-06T05:06:54.006Z,8.13
2018-02-06T05:11:57.276Z,7.10
2018-02-06T05:17:00.019Z,7.97
2018-02-06T05:22:03.399Z,13.13
2018-02-06T05:27:06.651Z,10.33
2018-02-06T05:32:09.183Z,4.97
2018-02-06T05:37:11.758Z,6.20
2018-02-06T05:42:14.450Z,4.03
2018-02-06T05:47:16.934Z,12.90
2018-02-06T05:52:19.441Z,7.80
2018-02-06T05:57:21.987Z,3.53
2018-02-06T06:02:24.504Z,9.90
2018-02-06T06:07:27.017Z,6.77
2018-02-06T06:12:29.539Z,4.27
2018-02-06T06:17:32.159Z,4.37
2018-02-06T06:22:34.946Z,7.43
2018-02-06T06:27:38.365Z,5.90
2018-02-06T06:32:41.890Z,5.27
2018-02-06T06:37:44.450Z,3.83
2018-02-06T06:42:47.257Z,7.67
2018-02-06T06:47:50.166Z,8.27
2018-02-06T06:52:52.687Z,6.70
2018-02-06T06:57:55.947Z,6.67
2018-02-06T07:02:58.486Z,5.33
2018-02-06T07:08:01.008Z,5.23
2018-02-06T07:13:03.986Z,5.23
2018-02-06T07:18:06.601Z,10.80
2018-02-06T07:23:09.147Z,18.13
2018-02-06T07:28:11.773Z,20.50
2018-02-06T07:33:15.778Z,19.40
2018-02-06T07:38:19.116Z,15.77
2018-02-06T07:43:21.839Z,16.80
2018-02-06T07:48:24.610Z,13.07
2018-02-06T07:53:27.126Z,13.23
2018-02-06T07:58:29.684Z,13.80
2018-02-06T08:03:32.183Z,18.70
2018-02-06T08:08:34.811Z,12.50
2018-02-06T08:13:37.343Z,10.13
2018-02-06T08:18:39.853Z,11.70
2018-02-06T08:23:42.775Z,8.23
2018-02-06T08:28:46.095Z,9.23
2018-02-06T08:33:50.480Z,11.40
2018-02-06T08:38:52.975Z,10.47
2018-02-06T08:43:55.509Z,7.83
2018-02-06T08:48:59.042Z,8.93
2018-02-06T08:54:02.649Z,9.83
2018-02-06T08:59:05.636Z,11.60
2018-02-06T09:04:08.724Z,9.90
2018-02-06T09:09:11.982Z,8.20
2018-02-06T09:14:15.492Z,9.93
2018-02-06T09:19:18.394Z,9.80
2018-02-06T09:24:21.016Z,14.60
2018-02-06T09:29:23.639Z,8.00
2018-02-06T09:34:27.040Z,6.20
2018-02-06T09:39:29.707Z,8.40
2018-02-06T09:44:33.342Z,7.37
2018-02-06T09:49:36.330Z,8.47
2018-02-06T09:54:38.869Z,6.57
2018-02-06T09:59:41.917Z,7.13
2018-02-06T10:04:44.947Z,9.10
2018-02-06T10:09:47.816Z,8.17
2018-02-06T10:14:50.720Z,6.40
2018-02-06T10:19:54.951Z,7.20
2018-02-06T10:24:58.065Z,6.03
2018-02-06T10:30:01.374Z,5.03
2018-02-06T10:35:03.901Z,6.87
2018-02-06T10:40:06.589Z,6.47
2018-02-06T10:45:09.563Z,5.17
2018-02-06T10:50:12.187Z,7.43
2018-02-06T10:55:14.869Z,9.05
2018-02-06T11:00:18.217Z,8.87
2018-02-06T11:05:20.797Z,6.77
2018-02-06T11:10:23.488Z,6.13
2018-02-06T11:15:26.020Z,5.27
2018-02-06T11:20:28.608Z,8.40
2018-02-06T11:25:31.982Z,7.90
2018-02-06T11:30:35.319Z,7.33
2018-02-06T11:35:38.073Z,3.53
2018-02-06T11:40:41.899Z,7.03
2018-02-06T11:45:45.321Z,6.93
2018-02-06T11:50:47.851Z,3.87
2018-02-06T11:55:50.720Z,3.90
2018-02-06T12:00:54.530Z,5.70
2018-02-06T12:05:57.103Z,5.70
2018-02-06T12:10:59.637Z,7.63
2018-02-06T12:16:02.189Z,6.90
2018-02-06T12:21:04.929Z,2.60
2018-02-06T12:26:07.471Z,8.07
2018-02-06T12:31:10.009Z,5.20
2018-02-06T12:36:12.702Z,3.80
2018-02-06T12:41:16.215Z,7.07
2018-02-06T12:46:20.368Z,5.47
2018-02-06T12:51:23.070Z,6.30
2018-02-06T12:56:26.862Z,4.40
2018-02-06T13:01:31.108Z,4.43
2018-02-06T13:06:33.800Z,3.90
2018-02-06T13:11:37.421Z,4.20
2018-02-06T13:16:40.705Z,2.93
2018-02-06T13:21:43.270Z,4.33
2018-02-06T13:26:45.885Z,11.00
2018-02-06T13:31:48.458Z,3.60
2018-02-06T13:36:51.014Z,19.03
2018-02-06T13:41:54.463Z,4.70
2018-02-06T13:46:57.141Z,3.77
2018-02-06T13:51:59.886Z,6.33
2018-02-06T13:57:02.491Z,6.53
2018-02-06T14:02:05.009Z,4.53
2018-02-06T14:07:07.578Z,5.30
2018-02-06T14:12:10.102Z,4.73
2018-02-06T14:17:13.435Z,5.43
2018-02-06T14:22:18.281Z,5.77
2018-02-06T14:27:20.814Z,6.30
2018-02-06T14:32:25.115Z,5.47
2018-02-06T14:37:27.879Z,4.37
2018-02-06T14:42:31.122Z,4.53
2018-02-06T14:47:34.693Z,5.37
2018-02-06T14:52:37.501Z,4.03
2018-02-06T14:57:40.303Z,3.30
2018-02-06T15:02:43.776Z,7.70
2018-02-06T15:07:46.533Z,3.53
2018-02-06T15:12:49.192Z,3.10
2018-02-06T15:17:52.147Z,5.00
2018-02-06T15:22:55.451Z,3.90
2018-02-06T15:27:57.960Z,3.40
2018-02-06T15:33:00.604Z,3.37
2018-02-06T15:38:03.264Z,4.40
2018-02-06T15:43:05.795Z,3.27
2018-02-06T15:48:08.348Z,2.80
2018-02-06T15:53:10.888Z,6.00
2018-02-06T15:58:14.206Z,2.73
2018-02-06T16:03:16.731Z,6.17
2018-02-06T16:08:20.013Z,6.30
2018-02-06T16:13:23.519Z,4.80
2018-02-06T16:18:26.088Z,3.40
2018-02-06T16:23:28.661Z,3.10
2018-02-06T16:28:32.213Z,3.53
2018-02-06T16:33:35.744Z,4.30
2018-02-06T16:38:38.274Z,4.00
2018-02-06T16:43:40.849Z,3.77
2018-02-06T16:48:44.153Z,4.07
2018-02-06T16:53:46.688Z,3.67
2018-02-06T16:58:49.293Z,4.50
2018-02-06T17:03:51.934Z,6.87
2018-02-06T17:08:55.199Z,8.33
2018-02-06T17:13:57.937Z,4.87
2018-02-06T17:19:00.452Z,4.83
2018-02-06T17:24:03.111Z,4.77
2018-02-06T17:29:06.113Z,4.53
2018-02-06T17:34:08.876Z,3.30
2018-02-06T17:39:11.922Z,4.60
2018-02-06T17:44:14.645Z,5.27
2018-02-06T17:49:18.074Z,5.90
2018-02-06T17:54:20.583Z,4.50
2018-02-06T17:59:23.127Z,4.23
2018-02-06T18:04:25.662Z,3.60
2018-02-06T18:09:29.149Z,5.10
2018-02-06T18:14:32.469Z,4.20
2018-02-06T18:19:35.198Z,4.00
2018-02-06T18:24:38.375Z,4.20
2018-02-06T18:29:40.951Z,8.23
2018-02-06T18:34:43.925Z,4.77
2018-02-06T18:39:47.521Z,9.17
2018-02-06T18:44:50.440Z,4.03
2018-02-06T18:49:53.281Z,3.47
2018-02-06T18:54:55.987Z,3.40
2018-02-06T18:59:59.559Z,4.20
2018-02-06T19:05:02.222Z,4.17
2018-02-06T19:10:04.908Z,3.63
2018-02-06T19:15:07.804Z,6.97
2018-02-06T19:20:10.694Z,4.07
2018-02-06T19:25:13.396Z,3.73
2018-02-06T19:30:16.864Z,3.30
2018-02-06T19:35:19.469Z,3.93
2018-02-06T19:40:22.014Z,7.80
2018-02-06T19:45:24.652Z,4.20
2018-02-06T19:50:27.746Z,3.90
2018-02-06T19:55:30.604Z,4.17
2018-02-06T20:00:33.640Z,3.30
2018-02-06T20:05:36.199Z,3.43
2018-02-06T20:10:38.827Z,4.13
2018-02-06T20:15:41.644Z,4.20
2018-02-06T20:20:44.416Z,8.40
2018-02-06T20:25:47.018Z,4.97
2018-02-06T20:30:50.588Z,3.50
2018-02-06T20:35:54.909Z,3.87
2018-02-06T20:40:57.500Z,3.10
2018-02-06T20:46:01.644Z,4.03
2018-02-06T20:51:04.272Z,4.03
2018-02-06T20:56:07.174Z,4.13
2018-02-06T21:01:10.500Z,6.70
2018-02-06T21:06:13.824Z,6.90
2018-02-06T21:11:16.620Z,5.10
2018-02-06T21:16:19.600Z,5.43
2018-02-06T21:21:23.028Z,7.73
2018-02-06T21:26:25.715Z,4.50
2018-02-06T21:31:28.341Z,5.90
2018-02-06T21:36:30.967Z,6.50
2018-02-06T21:41:33.538Z,5.53
2018-02-06T21:46:36.228Z,6.30
2018-02-06T21:51:39.523Z,5.20
2018-02-06T21:56:42.022Z,7.03
2018-02-06T22:01:45.580Z,5.30
2018-02-06T22:06:48.095Z,5.43
2018-02-06T22:11:50.841Z,6.07
2018-02-06T22:16:53.673Z,6.10
2018-02-06T22:21:56.403Z,4.97
2018-02-06T22:32:09.486Z,5.60
2018-02-06T22:37:12.007Z,6.07
2018-02-06T22:42:14.887Z,4.17
2018-02-06T22:47:17.463Z,5.27
2018-02-06T22:52:20.264Z,6.10
2018-02-06T22:57:22.996Z,5.23
2018-02-06T23:02:26.008Z,5.20
2018-02-06T23:07:28.551Z,5.70
2018-02-06T23:12:31.134Z,5.37
2018-02-06T23:17:33.955Z,5.00
2018-02-06T23:22:38.506Z,7.50
2018-02-06T23:27:42.043Z,14.73
2018-02-06T23:32:44.804Z,10.63
2018-02-06T23:37:47.329Z,10.27
2018-02-06T23:42:50.411Z,13.73
2018-02-06T23:47:53.094Z,12.53
2018-02-06T23:52:55.918Z,11.13
2018-02-06T23:57:58.628Z,12.30
